Time;durP1;ratioP1;P1;durP2;ratioP2;P2;SDS_P1;SDS_P2;PMS_P1;PMS_P2;Temp;Humidity;BMP_temperature;BMP_pressure;BME280_temperature;BME280_humidity;BME280_pressure;Samples;Min_cycle;Max_cycle;Signal;HPM_P1;HPM_P2
2024/03/14 14:11:20;;;;;;;17.50;15.50;;;;;;;4.93;100.00;98534.14;106832;1280;612587;-86
2024/03/14 14:13:49;;;;;;;17.00;14.70;;;;;;;5.11;100.00;98531.39;108359;1262;266277;-83
2024/03/14 14:16:19;;;;;;;17.30;14.00;;;;;;;5.16;100.00;98529.73;108491;1264;60178;-84
2024/03/14 14:18:46;;;;;;;18.20;15.50;;;;;;;5.21;100.00;98533.95;108377;1264;70844;-82
2024/03/14 14:21:14;;;;;;;21.20;15.70;;;;;;;5.26;100.00;98530.34;108429;1264;73083;-81
2024/03/14 14:23:41;;;;;;;23.80;16.30;;;;;;;5.30;100.00;98529.45;108543;1264;72549;-83
2024/03/14 14:26:08;;;;;;;24.10;18.50;;;;;;;5.34;100.00;98531.06;108728;1263;61821;-83
2024/03/14 14:28:36;;;;;;;24.90;20.50;;;;;;;5.35;100.00;98530.27;108522;1264;59138;-83
2024/03/14 14:31:03;;;;;;;29.20;19.40;;;;;;;5.36;100.00;98533.26;108539;1260;70605;-83
2024/03/14 14:33:30;;;;;;;26.60;19.70;;;;;;;5.36;100.00;98534.16;108848;1260;73942;-83
2024/03/14 14:36:01;;;;;;;25.90;19.20;;;;;;;5.36;100.00;98533.98;108758;1260;72118;-84
2024/03/14 14:38:29;;;;;;;25.50;18.80;;;;;;;5.37;100.00;98534.83;108672;1260;61173;-85
2024/03/14 14:40:56;;;;;;;26.60;20.40;;;;;;;5.37;100.00;98534.25;108847;1260;59647;-84
2024/03/14 14:43:25;;;;;;;31.30;21.30;;;;;;;5.38;100.00;98535.12;108599;1260;72928;-85
2024/03/14 14:45:55;;;;;;;28.20;20.60;;;;;;;5.39;100.00;98532.08;108488;1263;74231;-84
2024/03/14 14:48:23;;;;;;;27.90;21.60;;;;;;;5.37;100.00;98535.50;108548;1262;71199;-86
2024/03/14 14:50:50;;;;;;;25.90;19.60;;;;;;;5.36;100.00;98536.45;108677;1263;59111;-85
2024/03/14 14:53:17;;;;;;;28.40;21.30;;;;;;;5.35;100.00;98537.02;107384;1264;59895;-85
2024/03/14 14:55:45;;;;;;;28.60;20.10;;;;;;;5.35;100.00;98537.39;108649;1262;71488;-85
2024/03/14 14:58:27;;;;;;;28.10;20.40;;;;;;;5.36;100.00;98536.48;108707;1263;74422;-90
2024/03/14 15:00:57;;;;;;;24.80;19.50;;;;;;;5.37;100.00;98538.52;108715;1264;72677;-87
2024/03/14 15:03:24;;;;;;;25.80;19.80;;;;;;;5.38;100.00;98543.83;108336;1263;61032;-86
2024/03/14 15:05:52;;;;;;;28.00;22.30;;;;;;;5.39;100.00;98542.54;108491;1259;61048;-84
2024/03/14 15:08:19;;;;;;;26.10;20.40;;;;;;;5.41;100.00;98544.92;107944;1260;72665;-84
2024/03/14 15:10:46;;;;;;;30.00;22.00;;;;;;;5.44;100.00;98546.05;108470;1260;74131;-86
2024/03/14 15:13:14;;;;;;;23.90;19.40;;;;;;;5.47;100.00;98547.17;107835;1260;71673;-86
2024/03/14 15:15:41;;;;;;;23.40;18.10;;;;;;;5.48;100.00;98549.60;107459;1259;60292;-86
2024/03/14 15:18:08;;;;;;;27.60;19.00;;;;;;;5.49;100.00;98547.23;107401;1261;61052;-86
2024/03/14 15:20:37;;;;;;;22.70;18.90;;;;;;;5.50;100.00;98549.14;108634;1260;74268;-87
2024/03/14 15:23:04;;;;;;;22.40;17.40;;;;;;;5.50;100.00;98553.59;108881;1259;72107;-89
2024/03/14 15:25:31;;;;;;;21.70;16.80;;;;;;;5.50;100.00;98553.77;108860;1259;72519;-89
2024/03/14 15:27:59;;;;;;;23.50;17.00;;;;;;;5.50;100.00;98555.34;108808;1259;61879;-86
2024/03/14 15:30:30;;;;;;;24.30;16.60;;;;;;;5.53;100.00;98553.63;108776;1257;60550;-87
2024/03/14 15:33:02;;;;;;;23.60;17.10;;;;;;;5.54;100.00;98556.96;109055;1260;71838;-87
2024/03/14 15:35:30;;;;;;;22.30;17.50;;;;;;;5.55;100.00;98558.30;108991;1260;74168;-89
2024/03/14 15:37:58;;;;;;;21.70;17.80;;;;;;;5.56;100.00;98557.20;108933;1259;72655;-86
2024/03/14 15:40:27;;;;;;;23.10;17.10;;;;;;;5.57;100.00;98558.76;108741;1260;61073;-86
2024/03/14 15:42:56;;;;;;;18.00;15.50;;;;;;;5.57;100.00;98558.23;108661;1259;59876;-88
2024/03/14 15:45:25;;;;;;;22.70;16.70;;;;;;;5.57;100.00;98561.08;108614;1259;72935;-88
2024/03/14 15:47:52;;;;;;;23.00;16.50;;;;;;;5.57;100.00;98560.35;108549;1260;75150;-88
2024/03/14 15:50:22;;;;;;;25.50;16.30;;;;;;;5.57;100.00;98558.02;108589;1260;71612;-87
2024/03/14 15:52:49;;;;;;;21.60;17.60;;;;;;;5.58;100.00;98555.86;107682;1260;61000;-86
2024/03/14 15:55:17;;;;;;;22.40;16.90;;;;;;;5.59;100.00;98556.90;107068;1260;61073;-86
2024/03/14 15:57:48;;;;;;;22.20;17.30;;;;;;;5.59;100.00;98552.45;107666;1259;71772;-87
2024/03/14 16:00:15;;;;;;;22.20;16.30;;;;;;;5.59;100.00;98552.46;108341;1260;73282;-86
2024/03/14 16:02:44;;;;;;;18.40;15.30;;;;;;;5.59;100.00;98554.94;107998;1261;72668;-85
2024/03/14 16:05:15;;;;;;;22.70;16.80;;;;;;;5.58;100.00;98559.27;107777;1260;61011;-86
2024/03/14 16:07:45;;;;;;;22.10;17.60;;;;;;;5.57;100.00;98558.97;107908;1260;60046;-85
2024/03/14 16:10:15;;;;;;;22.50;16.60;;;;;;;5.54;100.00;98557.84;108282;1260;72938;-87
2024/03/14 16:12:45;;;;;;;22.00;17.60;;;;;;;5.53;100.00;98557.91;108057;1260;75562;-86
2024/03/14 16:15:13;;;;;;;24.00;17.90;;;;;;;5.52;100.00;98558.46;108366;1259;72891;-86
2024/03/14 16:17:41;;;;;;;21.40;17.30;;;;;;;5.52;100.00;98564.87;108072;1259;59773;-86
2024/03/14 16:20:21;;;;;;;25.00;18.10;;;;;;;5.50;100.00;98565.14;108641;1258;61006;-86
2024/03/14 16:23:01;;;;;;;24.90;20.20;;;;;;;5.48;100.00;98568.25;107600;1259;72822;-86
2024/03/14 16:25:34;;;;;;;25.50;19.00;;;;;;;5.46;100.00;98568.14;108241;1259;73307;-84
2024/03/14 16:28:08;;;;;;;23.50;18.80;;;;;;;5.43;100.00;98567.75;108150;1259;71469;-86
2024/03/14 16:30:37;;;;;;;22.50;18.90;;;;;;;5.41;100.00;98571.55;108305;1258;60932;-86
2024/03/14 16:33:06;;;;;;;25.00;19.50;;;;;;;5.40;100.00;98571.80;107850;1262;61183;-83
2024/03/14 16:35:35;;;;;;;26.80;19.50;;;;;;;5.39;100.00;98573.43;107414;1260;72831;-84
2024/03/14 16:38:03;;;;;;;24.30;19.50;;;;;;;5.38;100.00;98573.11;106909;1262;74014;-84
2024/03/14 16:40:31;;;;;;;23.40;19.10;;;;;;;5.37;100.00;98576.39;105932;1260;71364;-88
2024/03/14 16:42:59;;;;;;;23.60;18.10;;;;;;;5.35;100.00;98572.90;105884;1258;61172;-86
2024/03/14 16:45:29;;;;;;;30.10;20.10;;;;;;;5.33;100.00;98576.39;106516;1257;61110;-86
2024/03/14 16:48:00;;;;;;;26.90;19.40;;;;;;;5.31;100.00;98579.45;107783;1257;72831;-88
2024/03/14 16:50:30;;;;;;;23.80;19.40;;;;;;;5.29;100.00;98579.39;105886;1263;73211;-85
2024/03/14 16:52:58;;;;;;;18.80;16.80;;;;;;;5.27;100.00;98578.80;105945;1262;71452;-86
2024/03/14 16:55:25;;;;;;;21.10;17.70;;;;;;;5.24;100.00;98578.55;105678;1258;61174;-87
2024/03/14 16:57:57;;;;;;;21.90;17.20;;;;;;;5.23;100.00;98582.34;105608;1257;61093;-86
2024/03/14 17:00:29;;;;;;;22.90;19.60;;;;;;;5.21;100.00;98585.42;105675;1257;72618;-87
2024/03/14 17:02:57;;;;;;;20.00;16.60;;;;;;;5.20;100.00;98584.80;105475;1267;74080;-86
2024/03/14 17:05:24;;;;;;;19.90;17.80;;;;;;;5.18;100.00;98590.53;105508;1257;72223;-89
2024/03/14 17:07:52;;;;;;;23.20;18.80;;;;;;;5.17;100.00;98593.61;105468;1257;61223;-87
2024/03/14 17:10:22;;;;;;;18.90;16.90;;;;;;;5.15;100.00;98589.80;105492;1257;61007;-86
2024/03/14 17:12:50;;;;;;;20.30;18.10;;;;;;;5.13;100.00;98594.15;105534;1258;72953;-87
2024/03/14 17:15:18;;;;;;;20.50;17.20;;;;;;;5.11;100.00;98594.23;105568;1257;74348;-87
2024/03/14 17:17:45;;;;;;;20.50;18.10;;;;;;;5.10;100.00;98595.52;105522;1257;71928;-85
2024/03/14 17:20:17;;;;;;;19.10;16.60;;;;;;;5.08;100.00;98591.14;105525;1258;61157;-89
2024/03/14 17:22:45;;;;;;;19.30;16.40;;;;;;;5.06;100.00;98590.69;105648;1258;61073;-86
2024/03/14 17:25:14;;;;;;;18.70;16.70;;;;;;;5.05;100.00;98587.19;105592;1257;72322;-86
2024/03/14 17:27:43;;;;;;;20.20;16.80;;;;;;;5.05;100.00;98588.80;105815;1257;75006;-85
2024/03/14 17:30:15;;;;;;;19.40;17.30;;;;;;;5.03;100.00;98584.07;106636;1261;71403;-86
2024/03/14 17:32:44;;;;;;;21.20;18.10;;;;;;;5.02;100.00;98586.42;107489;1257;59618;-86
2024/03/14 17:35:13;;;;;;;20.50;17.80;;;;;;;5.02;100.00;98586.45;106724;1257;61065;-87
2024/03/14 17:37:43;;;;;;;18.70;16.80;;;;;;;5.01;100.00;98580.10;105740;1257;72793;-88
2024/03/14 17:40:11;;;;;;;18.40;16.50;;;;;;;5.00;100.00;98582.63;105657;1263;75235;-87
2024/03/14 17:42:42;;;;;;;16.90;15.20;;;;;;;4.98;100.00;98579.87;105841;1258;72841;-85
2024/03/14 17:45:17;;;;;;;18.80;15.50;;;;;;;4.96;100.00;98579.27;105743;1257;61191;-86
2024/03/14 17:47:46;;;;;;;19.00;15.30;;;;;;;4.93;100.00;98578.83;105429;1257;61320;-89
2024/03/14 17:50:14;;;;;;;16.40;14.60;;;;;;;4.91;100.00;98580.17;105620;1259;73220;-86
2024/03/14 17:52:44;;;;;;;20.00;17.00;;;;;;;4.90;100.00;98582.89;105656;1257;73371;-88
2024/03/14 17:55:13;;;;;;;23.40;15.90;;;;;;;4.88;100.00;98586.15;105574;1263;71594;-86
2024/03/14 17:57:44;;;;;;;19.60;16.70;;;;;;;4.88;100.00;98585.80;105382;1258;61093;-85
2024/03/14 18:00:16;;;;;;;17.90;16.10;;;;;;;4.88;100.00;98581.73;105529;1257;61004;-87
2024/03/14 18:02:46;;;;;;;19.30;16.00;;;;;;;4.88;100.00;98581.38;105533;1263;73218;-86
2024/03/14 18:05:14;;;;;;;20.40;17.20;;;;;;;4.87;100.00;98580.88;105658;1262;75078;-85
2024/03/14 18:07:45;;;;;;;18.30;16.30;;;;;;;4.86;100.00;98581.98;105850;1257;72545;-84
2024/03/14 18:10:14;;;;;;;18.90;16.70;;;;;;;4.86;100.00;98584.50;106885;1257;61148;-85
2024/03/14 18:12:43;;;;;;;19.00;17.00;;;;;;;4.85;100.00;98584.17;107450;1257;61163;-84
2024/03/14 18:15:13;;;;;;;16.30;14.70;;;;;;;4.84;100.00;98587.74;106439;1260;73129;-86
2024/03/14 18:17:41;;;;;;;16.70;13.90;;;;;;;4.85;100.00;98586.64;107605;1259;73330;-87
2024/03/14 18:20:12;;;;;;;16.50;14.60;;;;;;;4.84;100.00;98585.61;105510;1260;73756;-87
2024/03/14 18:22:48;;;;;;;15.90;14.30;;;;;;;4.84;100.00;98586.85;105779;1259;61160;-87
2024/03/14 18:25:19;;;;;;;15.00;13.40;;;;;;;4.84;100.00;98586.17;105691;1260;61204;-84
2024/03/14 18:27:50;;;;;;;17.40;14.80;;;;;;;4.83;100.00;98586.22;105653;1263;72065;-87
2024/03/14 18:30:18;;;;;;;16.40;14.30;;;;;;;4.83;100.00;98582.67;105772;1260;73259;-87
2024/03/14 18:32:49;;;;;;;16.50;13.10;;;;;;;4.82;100.00;98585.72;105888;1260;71959;-88
2024/03/14 18:35:22;;;;;;;15.20;13.70;;;;;;;4.81;100.00;98585.91;105876;1260;61914;-86
2024/03/14 18:37:50;;;;;;;15.90;14.30;;;;;;;4.82;100.00;98582.54;105653;1262;61156;-87
2024/03/14 18:40:20;;;;;;;15.90;13.90;;;;;;;4.82;100.00;98579.70;105793;1260;73797;-84
2024/03/14 18:42:48;;;;;;;15.90;14.20;;;;;;;4.81;100.00;98578.98;106552;1260;75070;-86
2024/03/14 18:45:16;;;;;;;18.80;15.60;;;;;;;4.81;100.00;98584.00;106415;1262;72035;-88
2024/03/14 18:47:45;;;;;;;16.80;15.00;;;;;;;4.79;100.00;98585.48;105868;1260;61067;-87
2024/03/14 18:50:12;;;;;;;21.60;15.20;;;;;;;4.77;100.00;98587.89;106577;1258;61187;-85
2024/03/14 18:52:40;;;;;;;34.90;16.30;;;;;;;4.75;100.00;98583.00;106499;1262;72318;-87
2024/03/14 18:55:09;;;;;;;16.30;14.30;;;;;;;4.73;100.00;98580.06;105738;1264;74615;-89
2024/03/14 18:57:36;;;;;;;21.40;16.80;;;;;;;4.73;100.00;98577.61;105912;1260;73223;-86
2024/03/14 19:00:07;;;;;;;22.20;19.00;;;;;;;4.72;100.00;98580.66;105537;1258;60997;-88
2024/03/14 19:02:35;;;;;;;24.50;19.80;;;;;;;4.69;100.00;98577.20;105856;1260;61096;-87
2024/03/14 19:05:04;;;;;;;26.20;21.10;;;;;;;4.66;100.00;98580.70;106019;1260;73873;-86
2024/03/14 19:07:33;;;;;;;33.70;24.30;;;;;;;4.62;100.00;98578.74;105699;1258;74145;-86
2024/03/14 19:10:03;;;;;;;34.40;25.90;;;;;;;4.60;100.00;98578.66;105426;1259;73473;-86
2024/03/14 19:12:32;;;;;;;27.00;20.30;;;;;;;4.58;100.00;98575.71;105630;1258;61129;-85
2024/03/14 19:14:59;;;;;;;32.40;23.60;;;;;;;4.58;100.00;98572.17;105793;1262;61165;-86
2024/03/14 19:17:27;;;;;;;34.40;23.80;;;;;;;4.58;100.00;98570.95;105518;1264;74811;-86
2024/03/14 19:19:58;;;;;;;30.80;22.70;;;;;;;4.58;100.00;98569.69;105485;1264;73311;-87
2024/03/14 19:22:25;;;;;;;34.30;25.70;;;;;;;4.57;100.00;98564.23;105415;1263;72575;-87
2024/03/14 19:24:54;;;;;;;38.90;28.00;;;;;;;4.56;100.00;98564.98;105557;1258;62313;-88
2024/03/14 19:27:21;;;;;;;30.00;23.30;;;;;;;4.55;100.00;98563.59;105800;1260;61161;-86
2024/03/14 19:29:49;;;;;;;28.00;21.90;;;;;;;4.55;100.00;98563.10;105725;1260;74704;-87
2024/03/14 19:32:20;;;;;;;29.10;21.90;;;;;;;4.54;100.00;98563.46;105549;1259;74291;-88
2024/03/14 19:34:48;;;;;;;25.50;20.80;;;;;;;4.52;100.00;98566.59;105564;1260;72309;-87
2024/03/14 19:37:16;;;;;;;25.50;18.80;;;;;;;4.48;100.00;98563.38;105584;1260;61174;-86
2024/03/14 19:39:43;;;;;;;22.80;17.40;;;;;;;4.46;100.00;98565.05;105416;1260;61050;-88
2024/03/14 19:42:17;;;;;;;19.20;16.80;;;;;;;4.44;100.00;98566.20;105452;1258;73403;-88
2024/03/14 19:44:45;;;;;;;22.50;17.70;;;;;;;4.42;100.00;98568.27;105430;1263;75082;-87
2024/03/14 19:47:16;;;;;;;22.10;17.80;;;;;;;4.41;100.00;98566.86;105452;1259;73504;-89
2024/03/14 19:49:45;;;;;;;23.60;18.20;;;;;;;4.41;100.00;98568.64;105558;1263;61182;-86
2024/03/14 19:52:13;;;;;;;22.90;19.50;;;;;;;4.41;100.00;98563.34;105411;1259;61174;-87
2024/03/14 19:54:40;;;;;;;26.10;20.60;;;;;;;4.40;100.00;98561.23;106317;1258;73791;-87
2024/03/14 19:57:08;;;;;;;28.90;23.40;;;;;;;4.40;100.00;98567.08;106988;1259;73083;-86
2024/03/14 19:59:36;;;;;;;24.10;20.40;;;;;;;4.40;100.00;98564.43;106729;1260;72482;-87
2024/03/14 20:02:04;;;;;;;22.00;19.60;;;;;;;4.41;100.00;98567.23;105687;1260;61409;-85
2024/03/14 20:04:33;;;;;;;25.90;18.60;;;;;;;4.42;100.00;98568.61;105479;1260;61088;-85
2024/03/14 20:07:00;;;;;;;20.60;18.30;;;;;;;4.43;100.00;98567.66;105233;1267;72586;-87
2024/03/14 20:09:30;;;;;;;28.40;20.30;;;;;;;4.44;100.00;98568.35;105704;1261;75572;-86
2024/03/14 20:11:57;;;;;;;23.50;19.80;;;;;;;4.43;100.00;98568.38;106176;1258;72293;-86
2024/03/14 20:14:25;;;;;;;42.30;26.20;;;;;;;4.42;100.00;98566.66;106451;1262;61173;-86
2024/03/14 20:16:58;;;;;;;38.90;25.60;;;;;;;4.41;100.00;98560.66;105701;1259;61183;-85
2024/03/14 20:19:25;;;;;;;37.30;25.10;;;;;;;4.41;100.00;98559.96;105815;1260;72755;-87
2024/03/14 20:21:52;;;;;;;30.00;21.10;;;;;;;4.40;100.00;98555.04;105502;1260;73257;-86
2024/03/14 20:24:22;;;;;;;25.10;18.90;;;;;;;4.40;100.00;98556.11;105436;1262;73654;-85
2024/03/14 20:26:51;;;;;;;47.20;32.10;;;;;;;4.40;100.00;98553.08;105317;1259;61129;-87
2024/03/14 20:29:18;;;;;;;49.80;35.00;;;;;;;4.40;100.00;98552.54;105613;1260;61176;-86
2024/03/14 20:31:48;;;;;;;47.70;32.70;;;;;;;4.39;100.00;98550.79;105459;1262;74951;-85
2024/03/14 20:34:15;;;;;;;51.00;34.20;;;;;;;4.37;100.00;98551.95;105447;1262;74077;-88
2024/03/14 20:36:43;;;;;;;52.20;36.30;;;;;;;4.37;100.00;98551.96;105417;1262;73400;-88
2024/03/14 20:39:10;;;;;;;42.40;29.80;;;;;;;4.34;100.00;98550.64;105448;1258;62187;-87
2024/03/14 20:41:38;;;;;;;39.20;26.70;;;;;;;4.33;100.00;98548.38;105396;1260;61464;-87
2024/03/14 20:44:08;;;;;;;36.80;26.00;;;;;;;4.32;100.00;98544.36;105375;1264;72438;-88
2024/03/14 20:46:35;;;;;;;32.80;23.60;;;;;;;4.31;100.00;98541.56;105407;1258;74380;-86
2024/03/14 20:49:14;;;;;;;31.50;23.10;;;;;;;4.30;100.00;98544.45;105451;1260;74040;-88
2024/03/14 20:51:41;;;;;;;29.60;22.00;;;;;;;4.30;100.00;98544.10;105396;1263;61168;-87
2024/03/14 20:54:08;;;;;;;26.50;22.10;;;;;;;4.29;100.00;98544.31;105651;1262;61058;-88
2024/03/14 20:56:46;;;;;;;34.50;24.20;;;;;;;4.29;100.00;98543.79;105913;1259;72481;-87
2024/03/14 20:59:15;;;;;;;32.00;22.10;;;;;;;4.30;100.00;98541.44;105885;1260;74645;-89
2024/03/14 21:01:42;;;;;;;28.30;19.90;;;;;;;4.29;100.00;98541.63;105952;1260;71602;-87
2024/03/14 21:04:09;;;;;;;23.10;18.50;;;;;;;4.30;100.00;98546.20;105690;1259;61459;-89
2024/03/14 21:06:37;;;;;;;23.00;18.30;;;;;;;4.30;100.00;98546.76;105951;1260;61182;-86
2024/03/14 21:09:07;;;;;;;26.30;19.10;;;;;;;4.30;100.00;98545.67;105932;1260;73573;-86
2024/03/14 21:11:37;;;;;;;26.00;19.60;;;;;;;4.30;100.00;98543.37;105723;1259;73166;-87
2024/03/14 21:14:05;;;;;;;24.80;20.30;;;;;;;4.30;100.00;98541.27;105957;1260;71721;-86
2024/03/14 21:16:36;;;;;;;29.60;21.50;;;;;;;4.30;100.00;98542.33;107129;1262;61189;-85
2024/03/14 21:19:04;;;;;;;28.90;21.10;;;;;;;4.29;100.00;98540.59;106634;1258;60537;-86
2024/03/14 21:21:31;;;;;;;26.90;21.30;;;;;;;4.29;100.00;98539.67;106034;1260;74641;-85
2024/03/14 21:24:01;;;;;;;26.00;19.90;;;;;;;4.31;100.00;98537.67;105898;1260;74770;-85
2024/03/14 21:26:29;;;;;;;29.90;21.90;;;;;;;4.33;100.00;98539.36;105955;1262;74711;-86
2024/03/14 21:28:59;;;;;;;24.40;19.60;;;;;;;4.34;100.00;98538.60;105648;1260;61189;-86
2024/03/14 21:31:29;;;;;;;25.60;19.90;;;;;;;4.35;100.00;98540.16;105727;1259;61071;-86
2024/03/14 21:33:56;;;;;;;26.80;20.80;;;;;;;4.33;100.00;98537.90;105710;1265;73081;-86
2024/03/14 21:36:25;;;;;;;26.40;20.30;;;;;;;4.32;100.00;98539.23;106255;1259;74548;-87
2024/03/14 21:38:52;;;;;;;22.20;17.80;;;;;;;4.30;100.00;98538.58;105898;1258;72963;-88
2024/03/14 21:41:20;;;;;;;25.10;18.30;;;;;;;4.30;100.00;98537.38;105517;1258;61169;-85
2024/03/14 21:43:47;;;;;;;22.70;18.40;;;;;;;4.28;100.00;98538.16;105542;1259;61174;-84
2024/03/14 21:46:14;;;;;;;21.90;18.90;;;;;;;4.26;100.00;98537.70;105537;1264;72804;-85
2024/03/14 21:48:41;;;;;;;22.50;18.30;;;;;;;4.24;100.00;98538.33;105578;1259;74847;-86
2024/03/14 21:51:08;;;;;;;24.70;18.10;;;;;;;4.21;100.00;98541.63;105682;1260;72604;-86
2024/03/14 21:53:35;;;;;;;22.30;18.90;;;;;;;4.19;100.00;98539.77;105527;1262;61199;-86
2024/03/14 21:56:03;;;;;;;24.60;17.60;;;;;;;4.16;100.00;98537.20;105601;1260;61243;-86
2024/03/14 21:58:32;;;;;;;24.00;18.50;;;;;;;4.15;100.00;98535.67;105696;1264;72792;-86
2024/03/14 22:01:11;;;;;;;21.70;18.10;;;;;;;4.13;100.00;98537.00;105495;1264;74116;-85
2024/03/14 22:03:39;;;;;;;21.60;18.10;;;;;;;4.10;100.00;98535.16;105541;1260;71064;-86
2024/03/14 22:06:07;;;;;;;24.20;19.00;;;;;;;4.10;100.00;98534.64;105734;1262;61202;-86
2024/03/14 22:08:35;;;;;;;23.70;17.90;;;;;;;4.09;100.00;98533.41;105504;1260;61052;-87
2024/03/14 22:11:03;;;;;;;24.80;19.80;;;;;;;4.08;100.00;98531.70;105633;1260;73446;-87
2024/03/14 22:13:30;;;;;;;22.90;18.00;;;;;;;4.07;100.00;98527.67;105561;1265;74123;-85
2024/03/14 22:15:57;;;;;;;21.80;18.30;;;;;;;4.07;100.00;98531.05;105638;1259;73594;-86
2024/03/14 22:18:25;;;;;;;22.40;18.20;;;;;;;4.06;100.00;98531.09;105620;1260;61487;-87
2024/03/14 22:20:53;;;;;;;23.00;19.00;;;;;;;4.07;100.00;98528.04;105711;1258;61030;-86
2024/03/14 22:23:20;;;;;;;23.60;18.90;;;;;;;4.06;100.00;98524.85;105527;1260;73440;-86
2024/03/14 22:25:48;;;;;;;21.10;18.70;;;;;;;4.06;100.00;98524.70;105664;1260;73193;-86
2024/03/14 22:28:15;;;;;;;26.40;20.40;;;;;;;4.05;100.00;98526.15;105417;1258;72461;-88
2024/03/14 22:30:42;;;;;;;29.60;20.40;;;;;;;4.05;100.00;98525.45;105459;1260;61069;-87
2024/03/14 22:33:18;;;;;;;28.90;20.80;;;;;;;4.04;100.00;98525.84;105330;1261;61107;-87
2024/03/14 22:35:46;;;;;;;28.60;21.20;;;;;;;4.03;100.00;98531.05;105458;1260;74659;-87
2024/03/14 22:38:13;;;;;;;25.70;20.10;;;;;;;4.01;100.00;98526.70;105360;1264;73197;-86
2024/03/14 22:40:40;;;;;;;25.60;21.70;;;;;;;4.00;100.00;98525.49;105403;1262;73632;-86
2024/03/14 22:43:08;;;;;;;29.20;22.20;;;;;;;4.00;100.00;98527.95;105374;1260;61515;-87
2024/03/14 22:45:35;;;;;;;23.80;19.20;;;;;;;4.00;100.00;98524.77;105461;1258;61282;-87
2024/03/14 22:48:03;;;;;;;28.60;21.20;;;;;;;4.01;100.00;98527.23;105466;1260;75128;-86
2024/03/14 22:50:32;;;;;;;25.20;18.40;;;;;;;4.01;100.00;98523.13;105413;1260;74077;-85
2024/03/14 22:52:59;;;;;;;26.00;18.90;;;;;;;4.01;100.00;98521.02;105474;1260;71386;-86
2024/03/14 22:55:27;;;;;;;23.30;19.90;;;;;;;4.02;100.00;98520.63;105566;1260;61186;-87
2024/03/14 22:57:54;;;;;;;28.80;19.50;;;;;;;4.02;100.00;98516.02;106216;1260;61185;-85
2024/03/14 23:00:37;;;;;;;21.60;19.00;;;;;;;4.02;100.00;98517.59;105740;1262;73886;-87
2024/03/14 23:03:05;;;;;;;26.50;19.60;;;;;;;4.02;100.00;98517.77;105810;1262;74110;-86
2024/03/14 23:05:33;;;;;;;25.10;18.40;;;;;;;4.02;100.00;98516.53;106372;1260;72448;-84
2024/03/14 23:08:00;;;;;;;26.20;20.00;;;;;;;4.03;100.00;98516.50;107288;1260;60936;-85
2024/03/14 23:10:28;;;;;;;26.00;21.30;;;;;;;4.03;100.00;98513.13;106342;1264;61211;-86
2024/03/14 23:12:55;;;;;;;27.80;21.10;;;;;;;4.03;100.00;98515.25;105457;1265;73762;-87
2024/03/14 23:15:24;;;;;;;24.20;20.70;;;;;;;4.03;100.00;98515.80;107354;1259;73444;-85
2024/03/14 23:17:54;;;;;;;27.50;23.00;;;;;;;4.02;100.00;98519.20;107418;1260;71440;-85
2024/03/14 23:20:22;;;;;;;32.10;21.60;;;;;;;4.03;100.00;98520.40;106923;1260;61157;-83
2024/03/14 23:22:50;;;;;;;24.40;20.50;;;;;;;4.03;100.00;98520.92;105553;1262;61179;-85
2024/03/14 23:25:18;;;;;;;23.90;20.00;;;;;;;4.04;100.00;98520.35;105365;1260;73535;-87
2024/03/14 23:27:46;;;;;;;25.40;20.60;;;;;;;4.05;100.00;98520.30;105430;1260;74164;-88
2024/03/14 23:30:13;;;;;;;22.90;19.70;;;;;;;4.06;100.00;98517.63;105362;1260;71482;-86
2024/03/14 23:32:45;;;;;;;26.30;20.60;;;;;;;4.07;100.00;98519.69;105415;1260;61153;-87
2024/03/14 23:35:13;;;;;;;27.60;20.50;;;;;;;4.07;100.00;98519.70;105518;1260;61183;-86
2024/03/14 23:37:42;;;;;;;27.20;20.50;;;;;;;4.07;100.00;98512.64;105504;1260;71691;-85
2024/03/14 23:40:12;;;;;;;26.40;21.10;;;;;;;4.07;100.00;98513.34;105579;1260;73175;-87
2024/03/14 23:42:42;;;;;;;27.50;20.70;;;;;;;4.07;100.00;98507.33;105270;1268;73799;-85
2024/03/14 23:45:09;;;;;;;24.50;19.90;;;;;;;4.06;100.00;98503.42;105538;1263;61132;-86
2024/03/14 23:47:37;;;;;;;25.10;20.00;;;;;;;4.07;100.00;98501.48;105506;1262;61114;-86
2024/03/14 23:50:08;;;;;;;27.70;21.00;;;;;;;4.06;100.00;98499.00;105582;1260;73312;-86
2024/03/14 23:52:36;;;;;;;27.60;20.60;;;;;;;4.05;100.00;98503.11;105810;1262;74210;-85
2024/03/14 23:55:06;;;;;;;25.60;20.40;;;;;;;4.04;100.00;98502.84;105650;1259;72655;-87
2024/03/14 23:57:33;;;;;;;25.60;20.10;;;;;;;4.03;100.00;98502.84;105876;1260;60952;-87
